Zenith Leader — 2ACU6 — position and weather

sailwx.info

Track history (hours):
 
Tides and Currents Weather Stations Pressure Air Temp Water Temp Dewpoint Dewpoint Depression Visibility Wind Speed Wind Dir Waves Ship Positions

Zenith Leader

Last reported at 2014-Aug-20 14:33 UTC. Time now 2014-Aug-20 14:37 UTC.
Position N 53°35' E 008°31'.

Length 199 m; draft 7.7 m.

Type: Cargo ship. MMSI: 235058697.

Date/timePositionNaut miles runAvg speedWind from/ knotsBaromVisibWave heightAir tempDewpointWater temp
2014-Aug-20 14:33N 53°35' E 008°31'2 2.3
2014-Aug-20 13:33N 53°33' E 008°34'0 0.5
2014-Aug-20 12:33N 53°34' E 008°34'0 0.0
2014-Aug-20 11:32N 53°34' E 008°34'0 0.0
2014-Aug-20 10:32N 53°34' E 008°34'0 0.0
2014-Aug-20 09:33N 53°34' E 008°34'0 0.0
2014-Aug-20 08:29N 53°34' E 008°34'0 0.0
2014-Aug-20 07:32N 53°34' E 008°34'0 0.0
2014-Aug-20 06:32N 53°34' E 008°34'0 0.0
2014-Aug-20 05:32N 53°34' E 008°34'0 0.0
2014-Aug-20 04:32N 53°34' E 008°34'0 0.0
2014-Aug-20 03:33N 53°34' E 008°34'0 0.0
2014-Aug-20 02:32N 53°34' E 008°34'0 0.0
2014-Aug-20 01:32N 53°34' E 008°34'0 0.0
2014-Aug-20 00:32N 53°34' E 008°34'0 0.0
2014-Aug-19 23:33N 53°34' E 008°34'0 0.0
2014-Aug-19 22:32N 53°34' E 008°34'0 0.0
2014-Aug-19 21:33N 53°34' E 008°34'0 0.0
2014-Aug-19 20:32N 53°34' E 008°34'0 0.0
2014-Aug-19 19:33N 53°34' E 008°34'0 0.0
2014-Aug-19 18:32N 53°34' E 008°34'0 0.0
2014-Aug-19 17:32N 53°34' E 008°34'0 0.0
2014-Aug-19 16:33N 53°34' E 008°34'0 0.4
2014-Aug-19 15:33N 53°34' E 008°34'8 7.7
2014-Aug-19 14:33N 53°39' E 008°24'1514.7
2014-Aug-19 13:33N 53°49' E 008°06'1515.4
2014-Aug-19 12:33N 53°53' E 007°41'1815.8
2014-Aug-19 11:25N 53°52' E 007°11'4315.1
2014-Aug-19 08:33N 53°41' E 006°00'1515.0
2014-Aug-19 07:33N 53°36' E 005°36'1514.7
2014-Aug-19 06:33N 53°31' E 005°13'1514.7
2014-Aug-19 05:33N 53°25' E 004°50'1413.7
2014-Aug-19 04:33N 53°15' E 004°36'1414.3
2014-Aug-19 03:33N 53°02' E 004°23'1414.3
2014-Aug-19 02:33N 52°50' E 004°12'1414.5
2014-Aug-19 01:33N 52°39' E 003°57'1515.2
2014-Aug-19 00:33N 52°28' E 003°39'5716.3
2014-Aug-18 21:03N 51°46' E 002°36'917.0
2014-Aug-18 20:33N 51°40' E 002°26'1717.4
2014-Aug-18 19:34N 51°26' E 002°09'1110.8
2014-Aug-18 18:33N 51°22' E 002°25'1313.0
2014-Aug-18 17:33N 51°22' E 002°45'1010.5
2014-Aug-18 16:34N 51°24' E 003°02'8 8.2
2014-Aug-18 15:34N 51°20' E 003°13'1 1.4
2014-Aug-18 14:33N 51°19' E 003°14'0 0.1
2014-Aug-18 13:33N 51°19' E 003°14'0 0.0
2014-Aug-18 12:33N 51°19' E 003°14'0 0.0
2014-Aug-18 11:33N 51°19' E 003°14'0 0.0
2014-Aug-18 10:33N 51°19' E 003°14'0 0.0
2014-Aug-18 09:33N 51°19' E 003°14'0 0.0
2014-Aug-18 08:33N 51°19' E 003°14'0 0.0
2014-Aug-18 07:33N 51°19' E 003°14'0 0.0
2014-Aug-18 06:33N 51°19' E 003°14'0 0.0
2014-Aug-18 05:33N 51°19' E 003°14'0 0.0
2014-Aug-18 04:33N 51°19' E 003°14'0 0.0
2014-Aug-18 03:33N 51°19' E 003°14'0 0.0
2014-Aug-18 02:33N 51°19' E 003°14'0 0.0
2014-Aug-18 01:33N 51°19' E 003°14'0 0.0
2014-Aug-18 00:30N 51°19' E 003°14'0 0.0
2014-Aug-17 18:33N 51°19' E 003°14'0 0.0
2014-Aug-17 17:33N 51°19' E 003°14'0 0.0
2014-Aug-17 16:33N 51°19' E 003°14'0 0.0
2014-Aug-17 15:33N 51°19' E 003°14'0 0.0
2014-Aug-17 14:33N 51°19' E 003°14'0 0.0
2014-Aug-17 13:33N 51°19' E 003°14'0 0.0
2014-Aug-17 12:33N 51°19' E 003°14'0 0.0
2014-Aug-17 11:33N 51°19' E 003°14'2 1.5
2014-Aug-17 10:33N 51°20' E 003°13'1 1.1
2014-Aug-17 09:34N 51°21' E 003°12'1010.4
2014-Aug-17 08:33N 51°23' E 002°56'1212.0
2014-Aug-17 07:34N 51°22' E 002°37'1211.8
2014-Aug-17 06:33N 51°18' E 002°19'1414.4
2014-Aug-17 05:34N 51°11' E 001°59'1515.1
2014-Aug-17 04:33N 51°03' E 001°39'1515.5
2014-Aug-17 03:33N 50°49' E 001°27'1614.7
2014-Aug-17 02:26N 50°35' E 001°12'1516.7
2014-Aug-17 01:33N 50°27' E 000°53'1817.7
2014-Aug-17 00:33N 50°23' E 000°26'24712.9
2014-Aug-16 05:24N 50°28' W 006°01'1315.3
2014-Aug-16 04:33N 50°39' W 005°50'1616.3
2014-Aug-16 03:33N 50°52' W 005°34'8515.8
2014-Aug-15 22:10N 51°20' W 003°26'813.2
2014-Aug-15 21:33N 51°21' W 003°13'9 8.8
2014-Aug-15 20:33N 51°26' W 003°01'1110.6
2014-Aug-15 19:33N 51°30' W 002°45'2 1.6
2014-Aug-15 18:32N 51°30' W 002°43'0 0.0
2014-Aug-15 17:32N 51°30' W 002°43'0 0.0
2014-Aug-15 16:32N 51°30' W 002°43'0 0.0
2014-Aug-15 15:32N 51°30' W 002°43'0 0.0
2014-Aug-15 14:32N 51°30' W 002°43'0 0.0
2014-Aug-15 13:32N 51°30' W 002°43'0 0.0
2014-Aug-15 12:32N 51°30' W 002°43'0 0.0
2014-Aug-15 11:32N 51°30' W 002°43'0 0.0
2014-Aug-15 10:32N 51°30' W 002°43'0 0.0
2014-Aug-15 09:32N 51°30' W 002°43'0 0.0
2014-Aug-15 08:32N 51°30' W 002°43'0 0.0
2014-Aug-15 07:32N 51°30' W 002°43'0 0.0
2014-Aug-15 06:32N 51°30' W 002°43'0 0.0
2014-Aug-15 05:32N 51°30' W 002°43'0 0.0
2014-Aug-15 04:32N 51°30' W 002°43'0 0.0
2014-Aug-15 03:32N 51°30' W 002°43'0 0.0
2014-Aug-15 02:32N 51°30' W 002°43'0 0.0
2014-Aug-15 01:32N 51°30' W 002°43'0 0.0
2014-Aug-15 00:32N 51°30' W 002°43'0 0.0
2014-Aug-14 23:32N 51°30' W 002°43'0 0.0
2014-Aug-14 22:32N 51°30' W 002°43'0 0.0
2014-Aug-14 21:32N 51°30' W 002°43'0 0.3
2014-Aug-14 20:33N 51°30' W 002°43'1 0.9
2014-Aug-14 19:33N 51°31' W 002°44'1312.8
2014-Aug-14 18:34N 51°25' W 003°02'1212.0
2014-Aug-14 17:33N 51°21' W 003°20'  
2014-Aug-11 17:16N 37°22' W 010°11'2614.5
2014-Aug-11 15:30N 36°56' W 010°06'10615.0
2014-Aug-11 08:26N 35°23' W 009°03'1615.7
2014-Aug-11 07:25N 35°10' W 008°52'  
Track history (hours):
 
Tides and Currents Weather Stations Pressure Air Temp Water Temp Dewpoint Dewpoint Depression Visibility Wind Speed Wind Dir Waves Ship Positions

Zenith Leader

Last reported at 2014-Aug-20 14:33 UTC. Time now 2014-Aug-20 14:37 UTC.
Position N 53°35' E 008°31'.

Length 199 m; draft 7.7 m.

Type: Cargo ship. MMSI: 235058697.

Date/timePositionNaut miles runAvg speedWind from/ knotsBaromVisibWave heightAir tempDewpointWater temp
2014-Aug-20 14:33N 53°35' E 008°31'2 2.3
2014-Aug-20 13:33N 53°33' E 008°34'0 0.5
2014-Aug-20 12:33N 53°34' E 008°34'0 0.0
2014-Aug-20 11:32N 53°34' E 008°34'0 0.0
2014-Aug-20 10:32N 53°34' E 008°34'0 0.0
2014-Aug-20 09:33N 53°34' E 008°34'0 0.0
2014-Aug-20 08:29N 53°34' E 008°34'0 0.0
2014-Aug-20 07:32N 53°34' E 008°34'0 0.0
2014-Aug-20 06:32N 53°34' E 008°34'0 0.0
2014-Aug-20 05:32N 53°34' E 008°34'0 0.0
2014-Aug-20 04:32N 53°34' E 008°34'0 0.0
2014-Aug-20 03:33N 53°34' E 008°34'0 0.0
2014-Aug-20 02:32N 53°34' E 008°34'0 0.0
2014-Aug-20 01:32N 53°34' E 008°34'0 0.0
2014-Aug-20 00:32N 53°34' E 008°34'0 0.0
2014-Aug-19 23:33N 53°34' E 008°34'0 0.0
2014-Aug-19 22:32N 53°34' E 008°34'0 0.0
2014-Aug-19 21:33N 53°34' E 008°34'0 0.0
2014-Aug-19 20:32N 53°34' E 008°34'0 0.0
2014-Aug-19 19:33N 53°34' E 008°34'0 0.0
2014-Aug-19 18:32N 53°34' E 008°34'0 0.0
2014-Aug-19 17:32N 53°34' E 008°34'0 0.0
2014-Aug-19 16:33N 53°34' E 008°34'0 0.4
2014-Aug-19 15:33N 53°34' E 008°34'8 7.7
2014-Aug-19 14:33N 53°39' E 008°24'1514.7
2014-Aug-19 13:33N 53°49' E 008°06'1515.4
2014-Aug-19 12:33N 53°53' E 007°41'1815.8
2014-Aug-19 11:25N 53°52' E 007°11'4315.1
2014-Aug-19 08:33N 53°41' E 006°00'1515.0
2014-Aug-19 07:33N 53°36' E 005°36'1514.7
2014-Aug-19 06:33N 53°31' E 005°13'1514.7
2014-Aug-19 05:33N 53°25' E 004°50'1413.7
2014-Aug-19 04:33N 53°15' E 004°36'1414.3
2014-Aug-19 03:33N 53°02' E 004°23'1414.3
2014-Aug-19 02:33N 52°50' E 004°12'1414.5
2014-Aug-19 01:33N 52°39' E 003°57'1515.2
2014-Aug-19 00:33N 52°28' E 003°39'5716.3
2014-Aug-18 21:03N 51°46' E 002°36'917.0
2014-Aug-18 20:33N 51°40' E 002°26'1717.4
2014-Aug-18 19:34N 51°26' E 002°09'1110.8
2014-Aug-18 18:33N 51°22' E 002°25'1313.0
2014-Aug-18 17:33N 51°22' E 002°45'1010.5
2014-Aug-18 16:34N 51°24' E 003°02'8 8.2
2014-Aug-18 15:34N 51°20' E 003°13'1 1.4
2014-Aug-18 14:33N 51°19' E 003°14'0 0.1
2014-Aug-18 13:33N 51°19' E 003°14'0 0.0
2014-Aug-18 12:33N 51°19' E 003°14'0 0.0
2014-Aug-18 11:33N 51°19' E 003°14'0 0.0
2014-Aug-18 10:33N 51°19' E 003°14'0 0.0
2014-Aug-18 09:33N 51°19' E 003°14'0 0.0
2014-Aug-18 08:33N 51°19' E 003°14'0 0.0
2014-Aug-18 07:33N 51°19' E 003°14'0 0.0
2014-Aug-18 06:33N 51°19' E 003°14'0 0.0
2014-Aug-18 05:33N 51°19' E 003°14'0 0.0
2014-Aug-18 04:33N 51°19' E 003°14'0 0.0
2014-Aug-18 03:33N 51°19' E 003°14'0 0.0
2014-Aug-18 02:33N 51°19' E 003°14'0 0.0
2014-Aug-18 01:33N 51°19' E 003°14'0 0.0
2014-Aug-18 00:30N 51°19' E 003°14'0 0.0
2014-Aug-17 18:33N 51°19' E 003°14'0 0.0
2014-Aug-17 17:33N 51°19' E 003°14'0 0.0
2014-Aug-17 16:33N 51°19' E 003°14'0 0.0
2014-Aug-17 15:33N 51°19' E 003°14'0 0.0
2014-Aug-17 14:33N 51°19' E 003°14'0 0.0
2014-Aug-17 13:33N 51°19' E 003°14'0 0.0
2014-Aug-17 12:33N 51°19' E 003°14'0 0.0
2014-Aug-17 11:33N 51°19' E 003°14'2 1.5
2014-Aug-17 10:33N 51°20' E 003°13'1 1.1
2014-Aug-17 09:34N 51°21' E 003°12'1010.4
2014-Aug-17 08:33N 51°23' E 002°56'1212.0
2014-Aug-17 07:34N 51°22' E 002°37'1211.8
2014-Aug-17 06:33N 51°18' E 002°19'1414.4
2014-Aug-17 05:34N 51°11' E 001°59'1515.1
2014-Aug-17 04:33N 51°03' E 001°39'1515.5
2014-Aug-17 03:33N 50°49' E 001°27'1614.7
2014-Aug-17 02:26N 50°35' E 001°12'1516.7
2014-Aug-17 01:33N 50°27' E 000°53'1817.7
2014-Aug-17 00:33N 50°23' E 000°26'24712.9
2014-Aug-16 05:24N 50°28' W 006°01'1315.3
2014-Aug-16 04:33N 50°39' W 005°50'1616.3
2014-Aug-16 03:33N 50°52' W 005°34'8515.8
2014-Aug-15 22:10N 51°20' W 003°26'813.2
2014-Aug-15 21:33N 51°21' W 003°13'9 8.8
2014-Aug-15 20:33N 51°26' W 003°01'1110.6
2014-Aug-15 19:33N 51°30' W 002°45'2 1.6
2014-Aug-15 18:32N 51°30' W 002°43'0 0.0
2014-Aug-15 17:32N 51°30' W 002°43'0 0.0
2014-Aug-15 16:32N 51°30' W 002°43'0 0.0
2014-Aug-15 15:32N 51°30' W 002°43'0 0.0
2014-Aug-15 14:32N 51°30' W 002°43'0 0.0
2014-Aug-15 13:32N 51°30' W 002°43'0 0.0
2014-Aug-15 12:32N 51°30' W 002°43'0 0.0
2014-Aug-15 11:32N 51°30' W 002°43'0 0.0
2014-Aug-15 10:32N 51°30' W 002°43'0 0.0
2014-Aug-15 09:32N 51°30' W 002°43'0 0.0
2014-Aug-15 08:32N 51°30' W 002°43'0 0.0
2014-Aug-15 07:32N 51°30' W 002°43'0 0.0
2014-Aug-15 06:32N 51°30' W 002°43'0 0.0
2014-Aug-15 05:32N 51°30' W 002°43'0 0.0
2014-Aug-15 04:32N 51°30' W 002°43'0 0.0
2014-Aug-15 03:32N 51°30' W 002°43'0 0.0
2014-Aug-15 02:32N 51°30' W 002°43'0 0.0
2014-Aug-15 01:32N 51°30' W 002°43'0 0.0
2014-Aug-15 00:32N 51°30' W 002°43'0 0.0
2014-Aug-14 23:32N 51°30' W 002°43'0 0.0
2014-Aug-14 22:32N 51°30' W 002°43'0 0.0
2014-Aug-14 21:32N 51°30' W 002°43'0 0.3
2014-Aug-14 20:33N 51°30' W 002°43'1 0.9
2014-Aug-14 19:33N 51°31' W 002°44'1312.8
2014-Aug-14 18:34N 51°25' W 003°02'1212.0
2014-Aug-14 17:33N 51°21' W 003°20'  
2014-Aug-11 17:16N 37°22' W 010°11'2614.5
2014-Aug-11 15:30N 36°56' W 010°06'10615.0
2014-Aug-11 08:26N 35°23' W 009°03'1615.7
2014-Aug-11 07:25N 35°10' W 008°52'  

Dump ship's entire track history